首页
METAR-TAF:

METAR-TAF

机场 :

Cerklje ob Krki, 斯洛文尼亚

纬度: 45-53-59N, 经度: 15-30-55E, 海拔: 157米

当前天气观测

该预报发布于28分钟前的07:30 UTC
风速2节,风向多变
温度 1°C
湿度 100%
气压 1017 hPa
能見度: 0300

METAR: LJCE 100730Z VRB02KT 0300 FG NSC 01/01 Q1017 R09/CLRD// RMK RED

时间: 08:58 (07:58 UTC)

预报

该预报发布于2小时和58分钟前的05:00 UTC
预报有效从10日的 06点(UTC)到 10日的 15点(UTC)
风速3节,风向
能见度10公里或以上
1500米以下无云,无积雨云
短暂存在
从 10日的 06点(UTC)到 10日的 09点(UTC)
能見度: 0500
层高于200英尺
成为
从 10日的 09点(UTC)到 10日的 12点(UTC)
风速6节,风向
短暂存在
从 10日的 10点(UTC)到 10日的 12点(UTC)
风速12节,风向

TAF: LJCE 100500Z 1006/1015 08003KT CAVOK TEMPO 1006/1009 0500 FG VV002 BECMG 1009/1012 08006KT TEMPO 1010/1012 08012KT

超过4000个机场的气象观测和天气预报(METAR&TAF报告)。

可查询的气象台以黄色和红色小点在地图上表示。

将鼠标移到小点上方,可查看气象台名称。

然后点击查看天气观测和预报。

如需切换地图:点击带黑十字的绿色按钮放大地图;点击带横线的绿色按钮缩小地图;或者点击绿色箭头查看邻近地区的地图。


METAR-TAF: